createdAt,value
2023-02-25T00:02:02.802Z,3.08
2023-02-25T00:04:32.501Z,3.00
2023-02-25T00:07:03.285Z,2.60
2023-02-25T00:09:32.389Z,2.53
2023-02-25T00:12:01.038Z,2.38
2023-02-25T00:14:29.674Z,2.72
2023-02-25T00:16:58.200Z,2.75
2023-02-25T00:19:27.665Z,3.33
2023-02-25T00:21:56.429Z,2.85
2023-02-25T00:24:26.292Z,2.42
2023-02-25T00:26:54.741Z,2.13
2023-02-25T00:29:23.228Z,2.75
2023-02-25T00:31:51.779Z,2.72
2023-02-25T00:34:20.453Z,2.55
2023-02-25T00:36:50.081Z,2.63
2023-02-25T00:39:18.648Z,4.05
2023-02-25T00:41:48.354Z,2.15
2023-02-25T00:44:16.981Z,4.43
2023-02-25T00:46:45.732Z,3.15
2023-02-25T00:49:26.997Z,2.80
2023-02-25T00:52:00.463Z,2.75
2023-02-25T00:54:29.104Z,2.83
2023-02-25T00:56:58.872Z,3.03
2023-02-25T00:59:27.596Z,2.60
2023-02-25T01:01:56.054Z,2.30
2023-02-25T01:04:24.730Z,2.95
2023-02-25T01:06:54.122Z,3.05
2023-02-25T01:09:22.830Z,2.03
2023-02-25T01:11:51.325Z,2.88
2023-02-25T01:14:23.182Z,3.88
2023-02-25T01:16:53.063Z,2.20
2023-02-25T01:19:23.642Z,2.70
2023-02-25T01:21:56.003Z,2.85
2023-02-25T01:24:27.565Z,2.78
2023-02-25T01:26:58.699Z,3.00
2023-02-25T01:29:31.023Z,4.53
2023-02-25T01:32:02.096Z,3.10
2023-02-25T01:34:30.954Z,2.90
2023-02-25T01:36:59.703Z,2.30
2023-02-25T01:39:29.095Z,3.10
2023-02-25T01:41:58.671Z,2.20
2023-02-25T01:44:33.417Z,2.50
2023-02-25T01:47:03.813Z,2.35
2023-02-25T01:49:35.485Z,2.58
2023-02-25T01:52:08.144Z,3.42
2023-02-25T01:54:38.392Z,3.40
2023-02-25T01:57:09.139Z,2.53
2023-02-25T01:59:40.262Z,2.90
2023-02-25T02:02:09.719Z,3.28
2023-02-25T02:04:39.547Z,2.60
2023-02-25T02:07:08.200Z,2.92
2023-02-25T02:09:37.737Z,3.30
2023-02-25T02:12:07.920Z,3.03
2023-02-25T02:14:41.403Z,2.75
2023-02-25T02:17:24.039Z,2.72
2023-02-25T02:20:09.857Z,2.38
2023-02-25T02:22:46.918Z,2.80
2023-02-25T02:26:12.110Z,2.08
2023-02-25T02:29:17.956Z,2.33
2023-02-25T02:31:55.551Z,2.13
2023-02-25T02:34:36.690Z,3.90
2023-02-25T02:37:15.621Z,3.03
2023-02-25T02:39:54.029Z,3.15
2023-02-25T02:42:31.875Z,2.22
2023-02-25T02:45:05.825Z,3.00
2023-02-25T02:47:39.387Z,2.67
2023-02-25T02:50:10.998Z,3.45
2023-02-25T02:52:44.324Z,3.70
2023-02-25T02:55:22.581Z,2.88
2023-02-25T02:57:54.705Z,3.30
2023-02-25T03:00:29.037Z,2.85
2023-02-25T03:03:03.534Z,2.85
2023-02-25T03:05:35.445Z,2.90
2023-02-25T03:08:08.758Z,3.13
2023-02-25T03:10:38.255Z,2.95
2023-02-25T03:13:06.826Z,2.65
2023-02-25T03:15:36.380Z,3.25
2023-02-25T03:18:11.269Z,3.40
2023-02-25T03:20:43.988Z,3.20
2023-02-25T03:23:27.417Z,4.22
2023-02-25T03:26:10.455Z,2.95
2023-02-25T03:28:40.149Z,2.97
2023-02-25T03:31:15.214Z,2.83
2023-02-25T03:33:49.843Z,2.38
2023-02-25T03:36:23.800Z,3.35
2023-02-25T03:38:57.419Z,2.70
2023-02-25T03:41:31.278Z,3.78
2023-02-25T03:44:01.108Z,3.17
2023-02-25T03:46:31.705Z,2.65
2023-02-25T03:49:04.071Z,3.05
2023-02-25T03:51:36.771Z,3.35
2023-02-25T03:54:11.576Z,3.88
2023-02-25T03:56:47.252Z,2.70
2023-02-25T03:59:16.907Z,3.30
2023-02-25T04:01:48.174Z,3.17
2023-02-25T04:04:18.251Z,2.85
2023-02-25T04:06:47.244Z,2.83
2023-02-25T04:09:15.691Z,3.53
2023-02-25T04:11:44.088Z,3.03
2023-02-25T04:14:12.596Z,4.28
2023-02-25T04:16:41.122Z,3.55
2023-02-25T04:19:23.120Z,3.35
2023-02-25T04:22:37.268Z,2.58
2023-02-25T04:25:11.652Z,3.38
2023-02-25T04:27:43.708Z,3.42
2023-02-25T04:30:16.308Z,3.55
2023-02-25T04:32:46.964Z,3.35
2023-02-25T04:35:16.029Z,4.43
2023-02-25T04:37:45.592Z,2.70
2023-02-25T04:40:17.887Z,3.67
2023-02-25T04:42:46.728Z,3.00
2023-02-25T04:45:16.563Z,3.10
2023-02-25T04:47:46.162Z,3.28
2023-02-25T04:50:14.623Z,2.40
2023-02-25T04:52:43.562Z,2.88
2023-02-25T04:55:13.070Z,3.13
2023-02-25T04:57:43.419Z,3.42
2023-02-25T05:00:19.114Z,2.85
2023-02-25T05:02:48.969Z,2.58
2023-02-25T05:05:19.142Z,3.60
2023-02-25T05:07:48.128Z,3.97
2023-02-25T05:10:19.735Z,4.07
2023-02-25T05:12:49.798Z,2.58
2023-02-25T05:15:18.580Z,4.15
2023-02-25T05:17:47.787Z,2.95
2023-02-25T05:20:16.696Z,3.88
2023-02-25T05:22:45.911Z,3.33
2023-02-25T05:25:15.042Z,3.28
2023-02-25T05:27:43.581Z,4.00
2023-02-25T05:30:14.796Z,4.00
2023-02-25T05:32:44.152Z,3.30
2023-02-25T05:35:17.633Z,2.47
2023-02-25T05:37:46.191Z,3.03
2023-02-25T05:40:15.053Z,3.63
2023-02-25T05:42:44.296Z,2.80
2023-02-25T05:45:14.655Z,3.70
2023-02-25T05:47:43.779Z,3.13
2023-02-25T05:50:12.998Z,4.13
2023-02-25T05:52:42.203Z,3.85
2023-02-25T05:55:12.416Z,2.88
2023-02-25T05:57:41.382Z,3.72
2023-02-25T06:00:14.671Z,3.10
2023-02-25T06:02:45.186Z,3.25
2023-02-25T06:05:14.202Z,4.20
2023-02-25T06:07:42.636Z,3.40
2023-02-25T06:10:12.817Z,2.88
2023-02-25T06:12:41.699Z,3.75
2023-02-25T06:15:10.557Z,3.45
2023-02-25T06:17:39.879Z,2.95
2023-02-25T06:20:11.597Z,3.10
2023-02-25T06:22:40.200Z,3.30
2023-02-25T06:25:09.615Z,4.07
2023-02-25T06:27:38.187Z,3.35
2023-02-25T06:30:08.764Z,3.15
2023-02-25T06:32:37.756Z,3.45
2023-02-25T06:35:07.847Z,3.33
2023-02-25T06:37:37.715Z,3.30
2023-02-25T06:40:08.079Z,2.80
2023-02-25T06:42:36.564Z,3.08
2023-02-25T06:45:05.923Z,4.22
2023-02-25T06:47:34.599Z,3.63
2023-02-25T06:50:03.049Z,3.33
2023-02-25T06:52:31.955Z,3.25
2023-02-25T06:55:01.782Z,4.28
2023-02-25T06:57:30.188Z,3.70
2023-02-25T06:59:58.508Z,3.38
2023-02-25T07:02:28.876Z,3.33
2023-02-25T07:04:57.656Z,4.35
2023-02-25T07:07:26.088Z,3.45
2023-02-25T07:09:54.433Z,3.30
2023-02-25T07:12:24.691Z,3.65
2023-02-25T07:14:53.143Z,3.85
2023-02-25T07:17:22.066Z,4.10
2023-02-25T07:19:50.682Z,3.75
2023-02-25T07:22:23.873Z,3.80
2023-02-25T07:24:52.619Z,3.38
2023-02-25T07:27:27.315Z,4.95
2023-02-25T07:30:05.268Z,5.80
2023-02-25T07:32:34.360Z,3.60
2023-02-25T07:35:04.486Z,3.92
2023-02-25T07:37:33.047Z,4.20
2023-02-25T07:40:01.777Z,5.55
2023-02-25T07:42:32.515Z,3.55
2023-02-25T07:45:02.279Z,4.95
2023-02-25T07:47:31.107Z,3.70
2023-02-25T07:49:59.558Z,4.40
2023-02-25T07:52:27.998Z,5.22
2023-02-25T07:54:56.599Z,4.85
2023-02-25T07:57:25.136Z,4.10
2023-02-25T07:59:54.981Z,4.28
2023-02-25T08:02:23.682Z,4.22
2023-02-25T08:04:52.460Z,3.83
2023-02-25T08:07:21.472Z,4.82
2023-02-25T08:09:50.039Z,5.50
2023-02-25T08:12:18.447Z,5.13
2023-02-25T08:14:46.836Z,3.65
2023-02-25T08:17:16.565Z,3.70
2023-02-25T08:19:45.170Z,5.07
2023-02-25T08:22:13.856Z,4.32
2023-02-25T08:24:42.507Z,3.50
2023-02-25T08:27:11.197Z,4.95
2023-02-25T08:29:39.917Z,3.97
2023-02-25T08:32:08.979Z,3.45
2023-02-25T08:34:38.997Z,3.63
2023-02-25T08:37:11.012Z,3.42
2023-02-25T08:39:39.642Z,3.00
2023-02-25T08:42:08.119Z,2.05
2023-02-25T08:44:37.058Z,4.60
2023-02-25T08:47:05.694Z,3.25
2023-02-25T08:49:34.114Z,3.22
2023-02-25T08:52:03.898Z,2.60
2023-02-25T08:54:32.581Z,2.25
2023-02-25T08:57:01.381Z,2.53
2023-02-25T08:59:36.052Z,2.30
2023-02-25T09:02:06.279Z,2.45
2023-02-25T09:04:35.780Z,1.77
2023-02-25T09:07:05.738Z,2.13
2023-02-25T09:09:34.172Z,1.92
2023-02-25T09:12:05.232Z,2.13
2023-02-25T09:14:34.985Z,2.53
2023-02-25T09:17:03.895Z,2.92
2023-02-25T09:19:38.333Z,2.38
2023-02-25T09:22:09.692Z,2.03
2023-02-25T09:24:38.530Z,2.10
2023-02-25T09:27:08.068Z,1.98
2023-02-25T09:29:38.321Z,2.47
2023-02-25T09:32:07.835Z,2.20
2023-02-25T09:34:37.842Z,2.05
2023-02-25T09:37:06.889Z,2.30
2023-02-25T09:39:36.648Z,2.00
2023-02-25T09:42:10.458Z,2.83
2023-02-25T09:44:44.539Z,1.80
2023-02-25T09:47:19.350Z,1.95
2023-02-25T09:49:53.141Z,1.75
2023-02-25T09:52:28.741Z,1.83
2023-02-25T09:55:04.520Z,1.70
2023-02-25T09:57:38.505Z,1.63
2023-02-25T10:00:17.019Z,1.20
2023-02-25T10:02:52.097Z,1.63
2023-02-25T10:05:30.201Z,1.63
2023-02-25T10:08:08.544Z,1.30
2023-02-25T10:10:48.937Z,1.48
2023-02-25T10:13:28.690Z,0.95
2023-02-25T10:16:07.234Z,1.50
2023-02-25T10:18:49.583Z,0.85
2023-02-25T10:21:31.162Z,1.30
2023-02-25T10:24:16.273Z,0.68
2023-02-25T10:26:50.458Z,0.93
2023-02-25T10:29:28.374Z,0.80
2023-02-25T10:32:00.298Z,1.15
2023-02-25T10:34:30.592Z,1.20
2023-02-25T10:37:01.041Z,1.23
2023-02-25T10:39:31.215Z,1.45
2023-02-25T10:42:01.597Z,1.60
2023-02-25T10:44:30.058Z,1.08
2023-02-25T10:47:02.849Z,1.63
2023-02-25T10:49:38.116Z,1.45
2023-02-25T10:52:10.225Z,1.80
2023-02-25T10:54:47.956Z,1.67
2023-02-25T10:57:25.780Z,1.95
2023-02-25T11:00:01.206Z,1.98
2023-02-25T11:02:31.814Z,1.65
2023-02-25T11:05:00.386Z,1.83
2023-02-25T11:07:34.105Z,2.03
2023-02-25T11:10:15.596Z,1.90
2023-02-25T11:12:47.107Z,1.85
2023-02-25T11:15:46.589Z,1.38
2023-02-25T11:20:54.077Z,2.30
2023-02-25T11:23:28.318Z,2.03
2023-02-25T11:25:57.747Z,2.25
2023-02-25T11:28:34.095Z,2.30
2023-02-25T11:31:11.272Z,2.17
2023-02-25T11:33:43.627Z,1.48
2023-02-25T11:36:13.238Z,1.73
2023-02-25T11:38:43.212Z,1.38
2023-02-25T11:41:21.553Z,1.58
2023-02-25T11:46:23.851Z,1.75
2023-02-25T11:48:56.301Z,1.92
2023-02-25T11:51:27.735Z,1.90
2023-02-25T11:54:10.095Z,2.75
2023-02-25T11:56:43.933Z,1.90
2023-02-25T11:59:29.297Z,1.52
2023-02-25T12:02:20.677Z,2.40
2023-02-25T12:05:07.347Z,1.40
2023-02-25T12:08:13.830Z,2.08
2023-02-25T12:11:26.532Z,1.60
2023-02-25T12:14:18.854Z,1.48
2023-02-25T12:17:21.476Z,2.30
2023-02-25T12:20:34.175Z,1.85
2023-02-25T12:23:39.084Z,1.40
2023-02-25T12:26:14.516Z,2.58
2023-02-25T12:29:03.533Z,1.92
2023-02-25T12:32:04.275Z,1.42
2023-02-25T12:35:06.962Z,1.23
2023-02-25T12:37:55.818Z,1.58
2023-02-25T12:40:39.592Z,1.40
2023-02-25T12:43:25.957Z,1.15
2023-02-25T12:46:12.130Z,1.80
2023-02-25T12:49:05.454Z,1.85
2023-02-25T12:52:04.214Z,1.65
2023-02-25T12:54:58.113Z,1.90
2023-02-25T12:57:42.164Z,1.55
2023-02-25T13:00:44.709Z,1.48
2023-02-25T13:03:49.753Z,1.60
2023-02-25T13:06:47.744Z,1.52
2023-02-25T13:09:48.573Z,1.38
2023-02-25T13:12:34.004Z,1.80
2023-02-25T13:15:10.485Z,2.03
2023-02-25T13:17:56.090Z,2.05
2023-02-25T13:20:51.612Z,1.20
2023-02-25T13:23:34.640Z,1.15
2023-02-25T13:26:19.593Z,1.20
2023-02-25T13:29:28.668Z,1.30
2023-02-25T13:32:16.089Z,1.48
2023-02-25T13:34:51.957Z,1.80
2023-02-25T13:37:37.742Z,1.10
2023-02-25T13:40:32.432Z,2.35
2023-02-25T13:43:19.043Z,1.00
2023-02-25T13:45:58.048Z,1.10
2023-02-25T13:48:50.845Z,1.20
2023-02-25T13:52:07.806Z,1.63
2023-02-25T13:55:07.737Z,0.95
2023-02-25T14:00:43.441Z,1.33
2023-02-25T14:03:49.055Z,0.93
2023-02-25T14:06:30.468Z,1.23
2023-02-25T14:09:14.966Z,0.80
2023-02-25T14:11:57.861Z,1.20
2023-02-25T14:14:54.565Z,0.80
2023-02-25T14:17:45.301Z,0.98
2023-02-25T14:20:29.179Z,1.13
2023-02-25T14:23:02.359Z,0.90
2023-02-25T14:25:45.807Z,1.48
2023-02-25T14:28:23.622Z,1.33
2023-02-25T14:31:08.218Z,0.70
2023-02-25T14:33:52.942Z,1.02
2023-02-25T14:36:36.740Z,1.00
2023-02-25T14:39:23.703Z,0.90
2023-02-25T14:42:05.608Z,1.08
2023-02-25T14:44:41.836Z,0.90
2023-02-25T14:47:14.316Z,0.80
2023-02-25T14:49:55.396Z,1.27
2023-02-25T14:52:50.775Z,0.88
2023-02-25T14:55:50.254Z,1.30
2023-02-25T14:58:44.881Z,1.05
2023-02-25T15:01:38.629Z,0.60
2023-02-25T15:04:35.476Z,0.70
2023-02-25T15:07:20.550Z,0.70
2023-02-25T15:10:18.434Z,1.13
2023-02-25T15:13:27.256Z,1.15
2023-02-25T15:16:29.712Z,1.02
2023-02-25T15:19:27.057Z,1.13
2023-02-25T15:22:19.358Z,1.10
2023-02-25T15:24:48.801Z,0.98
2023-02-25T15:27:43.077Z,1.65
2023-02-25T15:30:13.455Z,0.88
2023-02-25T15:32:54.179Z,1.40
2023-02-25T15:35:25.281Z,1.52
2023-02-25T15:38:13.624Z,1.05
2023-02-25T15:40:47.198Z,1.33
2023-02-25T15:43:40.888Z,1.40
2023-02-25T15:46:43.654Z,1.00
2023-02-25T15:49:29.129Z,0.95
2023-02-25T15:51:59.474Z,1.10
2023-02-25T15:54:51.140Z,1.02
2023-02-25T15:57:42.039Z,1.35
2023-02-25T16:00:44.365Z,0.90
2023-02-25T16:03:40.202Z,0.80
2023-02-25T16:06:14.357Z,0.70
2023-02-25T16:08:53.149Z,1.30
2023-02-25T16:11:35.728Z,1.77
2023-02-25T16:14:07.992Z,2.17
2023-02-25T16:16:40.678Z,1.77
2023-02-25T16:19:16.948Z,3.58
2023-02-25T16:21:49.076Z,1.48
2023-02-25T16:24:19.883Z,0.90
2023-02-25T16:26:58.781Z,2.88
2023-02-25T16:29:46.316Z,1.75
2023-02-25T16:32:26.633Z,1.75
2023-02-25T16:35:00.719Z,1.70
2023-02-25T16:37:39.649Z,1.23
2023-02-25T16:40:15.855Z,1.20
2023-02-25T16:42:47.039Z,1.13
2023-02-25T16:45:25.929Z,1.00
2023-02-25T16:48:01.287Z,1.00
2023-02-25T16:50:32.523Z,1.33
2023-02-25T16:53:03.324Z,2.28
2023-02-25T16:55:39.877Z,1.30
2023-02-25T16:58:24.144Z,1.75
2023-02-25T17:00:55.033Z,2.97
2023-02-25T17:03:27.475Z,2.58
2023-02-25T17:06:06.232Z,2.90
2023-02-25T17:08:35.508Z,1.80
2023-02-25T17:11:06.741Z,2.15
2023-02-25T17:13:41.852Z,2.47
2023-02-25T17:16:21.286Z,1.90
2023-02-25T17:18:54.543Z,1.70
2023-02-25T17:21:26.120Z,1.05
2023-02-25T17:23:54.752Z,1.80
2023-02-25T17:26:26.047Z,1.45
2023-02-25T17:28:58.738Z,2.00
2023-02-25T17:31:30.377Z,1.58
2023-02-25T17:34:01.161Z,1.60
2023-02-25T17:36:35.360Z,1.70
2023-02-25T17:39:07.406Z,2.17
2023-02-25T17:41:37.150Z,1.52
2023-02-25T17:44:07.657Z,2.28
2023-02-25T17:46:39.393Z,1.70
2023-02-25T17:49:21.396Z,2.17
2023-02-25T17:51:55.726Z,2.20
2023-02-25T17:54:27.482Z,1.42
2023-02-25T17:56:59.980Z,1.63
2023-02-25T17:59:38.398Z,2.20
2023-02-25T18:02:28.887Z,1.55
2023-02-25T18:05:22.291Z,2.13
2023-02-25T18:08:10.734Z,1.60
2023-02-25T18:10:52.380Z,2.25
2023-02-25T18:13:26.160Z,1.40
2023-02-25T18:16:31.340Z,1.40
2023-02-25T18:19:01.362Z,2.72
2023-02-25T18:21:30.808Z,2.00
2023-02-25T18:24:01.601Z,1.75
2023-02-25T18:26:53.322Z,1.73
2023-02-25T18:29:24.267Z,1.88
2023-02-25T18:31:53.596Z,1.65
2023-02-25T18:34:22.204Z,1.40
2023-02-25T18:36:55.259Z,2.10
2023-02-25T18:39:27.101Z,1.50
2023-02-25T18:41:58.181Z,1.52
2023-02-25T18:44:30.493Z,1.65
2023-02-25T18:47:07.032Z,1.65
2023-02-25T18:49:35.819Z,1.98
2023-02-25T18:52:04.605Z,2.22
2023-02-25T18:54:34.354Z,2.72
2023-02-25T18:57:04.221Z,2.53
2023-02-25T18:59:34.158Z,2.97
2023-02-25T19:02:03.321Z,3.17
2023-02-25T19:04:31.779Z,2.70
2023-02-25T19:07:00.232Z,2.70
2023-02-25T19:09:29.091Z,3.95
2023-02-25T19:11:58.993Z,4.40
2023-02-25T19:14:28.277Z,5.90
2023-02-25T19:16:59.624Z,5.00
2023-02-25T19:19:29.557Z,3.22
2023-02-25T19:21:58.762Z,3.83
2023-02-25T19:24:28.974Z,3.60
2023-02-25T19:27:00.758Z,3.85
2023-02-25T19:29:29.269Z,3.28
2023-02-25T19:31:59.164Z,3.33
2023-02-25T19:34:28.024Z,3.22
2023-02-25T19:36:56.835Z,3.67
2023-02-25T19:39:25.680Z,2.75
2023-02-25T19:41:54.484Z,2.35
2023-02-25T19:44:38.644Z,2.30
2023-02-25T19:47:08.966Z,3.13
2023-02-25T19:49:37.831Z,2.65
2023-02-25T19:52:07.139Z,2.55
2023-02-25T19:54:36.505Z,3.92
2023-02-25T19:57:05.586Z,3.10
2023-02-25T19:59:42.363Z,2.50
2023-02-25T20:02:14.387Z,3.40
2023-02-25T20:04:43.908Z,4.63
2023-02-25T20:07:15.921Z,4.32
2023-02-25T20:09:44.788Z,4.25
2023-02-25T20:12:14.026Z,4.18
2023-02-25T20:14:43.182Z,3.20
2023-02-25T20:17:13.326Z,4.15
2023-02-25T20:19:42.607Z,3.40
2023-02-25T20:22:12.574Z,3.88
2023-02-25T20:24:43.505Z,3.38
2023-02-25T20:27:13.049Z,2.67
2023-02-25T20:29:42.117Z,2.97
2023-02-25T20:32:11.805Z,2.25
2023-02-25T20:34:42.401Z,2.63
2023-02-25T20:37:15.661Z,4.43
2023-02-25T20:39:55.416Z,3.08
2023-02-25T20:42:27.682Z,1.92
2023-02-25T20:44:58.183Z,2.70
2023-02-25T20:47:30.217Z,2.28
2023-02-25T20:50:00.889Z,2.75
2023-02-25T20:52:32.314Z,2.97
2023-02-25T20:55:01.234Z,2.45
2023-02-25T20:57:30.363Z,3.20
2023-02-25T20:59:59.184Z,2.00
2023-02-25T21:02:27.929Z,1.83
2023-02-25T21:04:56.656Z,2.28
2023-02-25T21:07:27.002Z,2.05
2023-02-25T21:09:56.128Z,1.48
2023-02-25T21:12:25.155Z,2.67
2023-02-25T21:14:54.231Z,1.60
2023-02-25T21:17:23.145Z,2.42
2023-02-25T21:19:53.572Z,1.98
2023-02-25T21:22:22.150Z,2.00
2023-02-25T21:24:53.331Z,1.38
2023-02-25T21:27:24.011Z,2.17
2023-02-25T21:29:53.576Z,1.73
2023-02-25T21:32:22.736Z,1.45
2023-02-25T21:34:51.834Z,1.85
2023-02-25T21:37:20.686Z,1.73
2023-02-25T21:39:49.406Z,1.60
2023-02-25T21:42:19.602Z,1.90
2023-02-25T21:44:48.116Z,2.08
2023-02-25T21:47:17.812Z,1.85
2023-02-25T21:49:46.537Z,2.20
2023-02-25T21:52:16.561Z,1.90
2023-02-25T21:54:47.472Z,2.20
2023-02-25T21:57:19.309Z,2.25
2023-02-25T21:59:53.759Z,1.35
2023-02-25T22:02:23.191Z,1.45
2023-02-25T22:04:53.527Z,1.35
2023-02-25T22:07:23.629Z,1.83
2023-02-25T22:09:51.985Z,1.80
2023-02-25T22:12:20.446Z,1.38
2023-02-25T22:14:50.308Z,2.22
2023-02-25T22:17:19.204Z,1.42
2023-02-25T22:19:49.889Z,3.05
2023-02-25T22:22:20.784Z,1.70
2023-02-25T22:24:49.344Z,1.42
2023-02-25T22:27:20.270Z,2.70
2023-02-25T22:29:50.078Z,2.70
2023-02-25T22:32:18.506Z,2.60
2023-02-25T22:34:47.025Z,2.20
2023-02-25T22:37:15.678Z,1.90
2023-02-25T22:39:44.197Z,2.47
2023-02-25T22:42:12.722Z,1.95
2023-02-25T22:44:41.160Z,1.92
2023-02-25T22:47:10.936Z,1.60
2023-02-25T22:49:39.375Z,2.10
2023-02-25T22:52:07.834Z,2.95
2023-02-25T22:54:36.400Z,2.35
2023-02-25T22:57:04.936Z,2.83
2023-02-25T22:59:33.451Z,2.33
2023-02-25T23:02:02.750Z,2.35
2023-02-25T23:04:32.787Z,2.30
2023-02-25T23:07:01.782Z,1.67
2023-02-25T23:09:30.184Z,2.13
2023-02-25T23:11:59.823Z,1.90
2023-02-25T23:14:28.793Z,1.35
2023-02-25T23:16:57.408Z,1.98
2023-02-25T23:19:25.770Z,1.83
2023-02-25T23:21:55.491Z,1.65
2023-02-25T23:24:23.849Z,1.65
2023-02-25T23:26:54.199Z,1.60
2023-02-25T23:29:22.819Z,2.00
2023-02-25T23:31:51.372Z,1.75
2023-02-25T23:34:22.809Z,3.05
2023-02-25T23:36:51.862Z,1.90
2023-02-25T23:39:23.577Z,2.15
2023-02-25T23:41:52.090Z,1.95
2023-02-25T23:44:20.689Z,1.55
2023-02-25T23:46:49.585Z,1.67
2023-02-25T23:49:18.300Z,1.20
2023-02-25T23:51:48.534Z,1.23
2023-02-25T23:54:18.951Z,1.25
2023-02-25T23:56:49.804Z,2.83
2023-02-25T23:59:18.569Z,1.10
